Flugplatz Finsterwalde/Schacksdorf

Für EDUS sind keine METAR/TAF Berichte vorhanden.
Es werden die Flugwettermeldungen vom Flugplatz Holzdorf Airport in 43 km Entfernung angezeigt.

Bericht für ETSH

vom 14.08. um 07:20 UTC

Wind 4 kt aus 170°

Sichtweite 10 km oder mehr

gering bewölkt in 7500 ft

aufgebrochene Bewölkung in 11000 ft

aufgebrochene Bewölkung in 14000 ft

Temperatur 21.0°C

Taupunkt 18.0°C

Luftfeuchtigkeit 83%

Luftdruck 1013 hPa

ETSH 140720Z 17004KT 9999 FEW075 BKN110 BKN140 21/18 Q1013 BLU BLU

Prognose für ETSH

vom 14.08. um 07:17 UTC

Zwischen 08:00 UTC und 17:00 UTC

Wind 7 kt aus 250°

Sichtweite 10 km oder mehr

keine signifikanten Wettererscheinungen

aufgelockert bewölkt in 5000 ft

aufgebrochene Bewölkung in 10000 ft


Zwischen 08:00 UTC und 17:00 UTC mit einer Wahrscheinlichkeit von 30%

variable Windrichtung mit 15 kt in Böen 25 kt

Sichtweite 3000 m

Code: TSRA

aufgelockert bewölkt in 1000 ft

aufgebrochene Bewölkung in 1500 ft

TAF ETSH 140717Z 1408/1417 25007KT 9999 NSW SCT050 BKN100 PROB30 1408/1417 VRB15G25KT 3000 TSRA SCT010 BKN015CB
Impressum